createdAt,value
2018-07-01T12:53:19.795Z,180.00
2018-07-01T12:54:19.700Z,180.00
2018-07-01T12:56:12.497Z,180.00
2018-07-01T12:57:12.407Z,174.38
2018-07-01T12:59:05.244Z,174.38
2018-07-01T13:00:05.132Z,174.38
2018-07-01T13:01:58.016Z,174.38
2018-07-01T13:02:57.906Z,174.38
2018-07-01T13:04:50.722Z,174.38
2018-07-01T13:05:50.629Z,174.38
2018-07-01T13:07:46.624Z,174.38
2018-07-01T13:08:47.011Z,174.38
2018-07-01T13:10:40.344Z,174.38
2018-07-01T13:11:40.221Z,174.38
2018-07-01T13:13:33.078Z,174.38
2018-07-01T13:14:32.979Z,174.38
2018-07-01T13:16:25.852Z,174.38
2018-07-01T13:17:25.827Z,174.38
2018-07-01T13:19:18.573Z,174.38
2018-07-01T13:20:18.495Z,174.38
2018-07-01T13:22:11.641Z,174.38
2018-07-01T13:23:11.241Z,174.38
2018-07-01T13:25:04.154Z,174.38
2018-07-01T13:26:03.980Z,174.38
2018-07-01T13:27:56.799Z,174.38
2018-07-01T13:28:56.722Z,174.38
2018-07-01T13:30:49.571Z,174.38
2018-07-01T13:31:49.492Z,174.38
2018-07-01T13:33:42.303Z,174.38
2018-07-01T13:34:42.216Z,174.38
2018-07-01T13:36:35.079Z,180.00
2018-07-01T13:37:34.980Z,174.38
2018-07-01T13:39:27.803Z,174.38
2018-07-01T13:40:27.719Z,174.38
2018-07-01T13:42:20.576Z,174.38
2018-07-01T13:43:20.517Z,174.38
2018-07-01T13:45:13.346Z,174.38
2018-07-01T13:46:13.227Z,174.38
2018-07-01T13:48:06.081Z,174.38
2018-07-01T13:49:05.989Z,174.38
2018-07-01T13:50:58.894Z,174.38
2018-07-01T13:51:58.752Z,174.38
2018-07-01T13:53:51.571Z,174.38
2018-07-01T13:54:51.482Z,174.38
2018-07-01T13:56:44.376Z,174.38
2018-07-01T13:57:44.240Z,174.38
2018-07-01T13:59:37.588Z,174.38
2018-07-01T14:00:37.498Z,174.38
2018-07-01T14:02:30.370Z,180.00
2018-07-01T14:03:30.234Z,180.00
2018-07-01T14:05:23.108Z,180.00
2018-07-01T14:06:23.218Z,180.00
2018-07-01T14:08:16.524Z,180.00
2018-07-01T14:09:15.754Z,180.00
2018-07-01T14:11:21.007Z,180.00
2018-07-01T14:12:16.987Z,180.00
2018-07-01T14:14:10.934Z,180.00
2018-07-01T14:15:10.755Z,180.00
2018-07-01T14:17:03.592Z,180.00
2018-07-01T14:18:03.499Z,180.00
2018-07-01T14:19:56.403Z,180.00
2018-07-01T14:20:56.248Z,180.00
2018-07-01T14:22:49.081Z,180.00
2018-07-01T14:23:48.998Z,180.00
2018-07-01T14:25:41.841Z,180.00
2018-07-01T14:26:41.761Z,180.00
2018-07-01T14:28:34.604Z,180.00
2018-07-01T14:29:34.500Z,180.00
2018-07-01T14:31:27.734Z,180.00
2018-07-01T14:32:27.657Z,180.00
2018-07-01T14:34:20.542Z,180.00
2018-07-01T14:35:20.402Z,180.00
2018-07-01T14:37:13.344Z,180.00
2018-07-01T14:38:13.266Z,180.00
2018-07-01T14:40:06.656Z,180.00
2018-07-01T14:41:06.429Z,180.00
2018-07-01T14:42:59.248Z,180.00
2018-07-01T14:43:59.186Z,180.00
2018-07-01T14:45:52.061Z,180.00
2018-07-01T14:46:51.913Z,180.00
2018-07-01T14:48:45.295Z,180.00
2018-07-01T14:49:45.178Z,180.00
2018-07-01T14:51:38.012Z,180.00
2018-07-01T14:52:37.934Z,180.00
2018-07-01T14:54:31.792Z,180.00
2018-07-01T14:55:31.192Z,180.00
2018-07-01T14:57:24.036Z,180.00
2018-07-01T14:58:23.958Z,180.00
2018-07-01T15:00:16.791Z,180.00
2018-07-01T15:01:16.726Z,180.00
2018-07-01T15:03:09.524Z,180.00
2018-07-01T15:04:09.460Z,180.00
2018-07-01T15:06:02.330Z,180.00
2018-07-01T15:07:02.216Z,180.00
2018-07-01T15:08:55.039Z,180.00
2018-07-01T15:09:54.933Z,180.00
2018-07-01T15:11:47.787Z,180.00
2018-07-01T15:12:47.696Z,180.00
2018-07-01T15:14:40.582Z,180.00
2018-07-01T15:15:40.440Z,180.00
2018-07-01T15:17:33.273Z,180.00
2018-07-01T15:18:33.187Z,180.00
2018-07-01T15:20:26.060Z,180.00
2018-07-01T15:21:26.028Z,180.00
2018-07-01T15:23:19.324Z,185.63
2018-07-01T15:24:19.193Z,185.63
2018-07-01T15:26:12.081Z,185.63
2018-07-01T15:27:11.970Z,185.63
2018-07-01T15:29:04.806Z,185.63
2018-07-01T15:30:04.764Z,185.63
2018-07-01T15:31:57.576Z,185.63
2018-07-01T15:32:57.516Z,185.63
2018-07-01T15:34:50.819Z,185.63
2018-07-01T15:35:50.196Z,185.63
2018-07-01T15:37:43.067Z,185.63
2018-07-01T15:38:43.155Z,185.63
2018-07-01T15:40:35.811Z,185.63
2018-07-01T15:41:35.691Z,185.63
2018-07-01T15:43:28.566Z,185.63
2018-07-01T15:44:28.451Z,185.63
2018-07-01T15:46:21.297Z,185.63
2018-07-01T15:47:21.224Z,185.63
2018-07-01T15:49:14.142Z,185.63
2018-07-01T15:50:13.957Z,185.63
2018-07-01T15:52:07.307Z,185.63
2018-07-01T15:53:07.220Z,185.63
2018-07-01T15:55:00.131Z,185.63
2018-07-01T15:55:59.955Z,185.63
2018-07-01T15:57:52.803Z,185.63
2018-07-01T15:58:52.709Z,185.63
2018-07-01T16:00:46.113Z,185.63
2018-07-01T16:01:45.471Z,185.63
2018-07-01T16:03:38.310Z,191.25
2018-07-01T16:04:38.244Z,191.25
2018-07-01T16:06:31.053Z,191.25
2018-07-01T16:07:30.954Z,191.25
2018-07-01T16:09:23.797Z,191.25
2018-07-01T16:10:23.732Z,191.25
2018-07-01T16:12:16.602Z,191.25
2018-07-01T16:13:16.622Z,196.88
2018-07-01T16:15:09.303Z,196.88
2018-07-01T16:16:09.211Z,196.88
2018-07-01T16:18:02.130Z,202.50
2018-07-01T16:19:01.977Z,202.50
2018-07-01T16:20:55.301Z,208.13
2018-07-01T16:21:55.261Z,208.13
2018-07-01T16:23:48.080Z,213.75
2018-07-01T16:24:48.031Z,219.38
2018-07-01T16:26:40.858Z,230.63
2018-07-01T16:27:40.726Z,236.25
2018-07-01T16:29:33.586Z,241.88
2018-07-01T16:30:33.466Z,247.50
2018-07-01T16:32:26.297Z,258.75
2018-07-01T16:33:26.214Z,258.75
2018-07-01T16:35:19.089Z,270.00
2018-07-01T16:36:18.983Z,281.25
2018-07-01T16:38:11.841Z,286.88
2018-07-01T16:39:11.762Z,292.50
2018-07-01T16:41:04.643Z,298.13
2018-07-01T16:42:04.475Z,303.75
2018-07-01T16:43:57.321Z,309.38
2018-07-01T16:44:57.233Z,315.00
2018-07-01T16:46:50.040Z,320.63
2018-07-01T16:47:49.988Z,326.25
2018-07-01T16:49:42.812Z,326.25
2018-07-01T16:50:42.884Z,331.88
2018-07-01T16:52:35.734Z,337.50
2018-07-01T16:53:35.584Z,337.50
2018-07-01T16:55:28.933Z,337.50
2018-07-01T16:56:28.892Z,337.50
2018-07-01T16:58:21.773Z,337.50
2018-07-01T16:59:21.673Z,343.13
2018-07-01T17:01:14.537Z,343.13
2018-07-01T17:02:14.468Z,343.13
2018-07-01T17:04:07.311Z,343.13
2018-07-01T17:05:07.255Z,343.13
2018-07-01T17:07:00.031Z,348.75
2018-07-01T17:07:59.953Z,348.75
2018-07-01T17:09:52.816Z,348.75
2018-07-01T17:10:52.686Z,354.38
2018-07-01T17:12:45.546Z,354.38
2018-07-01T17:13:45.494Z,354.38
2018-07-01T17:15:38.287Z,354.38
2018-07-01T17:16:38.185Z,360.00
2018-07-01T17:18:31.116Z,360.00
2018-07-01T17:19:30.935Z,365.63
2018-07-01T17:21:24.283Z,365.63
2018-07-01T17:22:24.213Z,365.63
2018-07-01T17:24:17.143Z,376.88
2018-07-01T17:25:17.063Z,382.50
2018-07-01T17:27:10.800Z,393.75
2018-07-01T17:28:10.742Z,410.63
2018-07-01T17:30:03.675Z,433.13
2018-07-01T17:31:03.485Z,472.50
2018-07-01T17:32:56.359Z,1867.50
2018-07-01T17:33:56.214Z,3335.63
2018-07-01T17:35:49.641Z,4308.75
2018-07-01T17:36:49.500Z,4353.75
2018-07-01T17:38:42.323Z,4443.75
2018-07-01T17:39:42.307Z,4280.63
2018-07-01T17:41:35.121Z,4342.50
2018-07-01T17:42:35.103Z,4438.13
2018-07-01T17:44:27.926Z,4252.50
2018-07-01T17:45:27.764Z,4280.63
2018-07-01T17:47:20.619Z,4258.13
2018-07-01T17:48:20.527Z,4100.63
2018-07-01T17:50:13.492Z,4083.75
2018-07-01T17:51:13.269Z,4066.88
2018-07-01T17:53:06.100Z,4072.50
2018-07-01T17:54:05.989Z,4038.75
2018-07-01T17:55:58.829Z,4027.50
2018-07-01T17:56:58.743Z,4072.50
2018-07-01T17:58:51.576Z,4005.00
2018-07-01T17:59:51.581Z,3881.25
2018-07-01T18:01:44.344Z,3864.38
2018-07-01T18:02:44.241Z,3920.63
2018-07-01T18:04:37.082Z,3723.75
2018-07-01T18:05:36.989Z,3785.63
2018-07-01T18:07:29.898Z,3673.13
2018-07-01T18:08:29.853Z,3757.50
2018-07-01T18:10:22.594Z,3549.38
2018-07-01T18:11:22.495Z,3082.50
2018-07-01T18:13:15.379Z,2081.25
2018-07-01T18:14:15.246Z,894.38
2018-07-01T18:16:08.118Z,326.25
2018-07-01T18:17:08.032Z,157.50
2018-07-01T18:19:00.855Z,129.38
2018-07-01T18:20:00.732Z,185.63
2018-07-01T18:23:27.412Z,191.25
2018-07-01T18:25:01.540Z,129.38
2018-07-01T18:25:46.411Z,129.38
2018-07-01T18:27:40.136Z,118.13
2018-07-01T18:28:48.665Z,118.13
2018-07-01T18:30:31.827Z,146.25
2018-07-01T18:31:31.744Z,208.13
2018-07-01T18:33:24.615Z,140.63
2018-07-01T18:34:24.509Z,95.63
2018-07-01T18:36:17.310Z,90.00
2018-07-01T18:37:17.227Z,90.00
2018-07-01T18:39:10.598Z,90.00
2018-07-01T18:40:10.531Z,90.00
2018-07-01T18:42:03.336Z,118.13
2018-07-01T18:43:03.245Z,129.38
2018-07-01T18:44:56.080Z,112.50
2018-07-01T18:45:55.975Z,90.00
2018-07-01T18:47:48.826Z,67.50
2018-07-01T18:48:48.756Z,67.50
2018-07-01T18:50:41.569Z,67.50
2018-07-01T18:51:41.488Z,61.88
2018-07-01T18:53:34.299Z,61.88
2018-07-01T18:54:34.241Z,61.88
2018-07-01T18:56:27.077Z,56.25
2018-07-01T18:57:26.986Z,56.25
2018-07-01T18:59:19.825Z,50.63
2018-07-01T19:00:19.735Z,50.63
2018-07-01T19:02:12.560Z,50.63
2018-07-01T19:03:12.479Z,50.63
2018-07-01T19:05:05.347Z,45.00
2018-07-01T19:06:05.236Z,45.00
2018-07-01T19:07:58.071Z,39.38
2018-07-01T19:08:57.975Z,39.38
2018-07-01T19:10:50.812Z,39.38
2018-07-01T19:11:50.724Z,39.38
2018-07-01T19:13:43.551Z,33.75
2018-07-01T19:14:43.469Z,33.75
2018-07-01T19:16:36.332Z,33.75
2018-07-01T19:17:36.245Z,28.13
2018-07-01T19:19:29.068Z,28.13
2018-07-01T19:20:28.966Z,28.13
2018-07-01T19:22:21.797Z,22.50
2018-07-01T19:23:21.727Z,22.50
2018-07-01T19:25:15.089Z,22.50
2018-07-01T19:26:14.970Z,22.50
2018-07-01T19:28:07.803Z,16.88
2018-07-01T19:29:07.722Z,16.88
2018-07-01T19:31:00.604Z,16.88
2018-07-01T19:32:00.472Z,16.88
2018-07-01T19:33:53.305Z,16.88
2018-07-01T19:34:53.229Z,11.25
2018-07-01T19:36:46.069Z,11.25
2018-07-01T19:37:45.972Z,11.25
2018-07-01T19:39:38.834Z,11.25
2018-07-01T19:40:38.761Z,11.25
2018-07-01T19:42:31.696Z,5.63
2018-07-01T19:43:32.919Z,5.63
2018-07-01T19:45:24.353Z,5.63
2018-07-01T19:46:24.274Z,5.63
2018-07-01T19:48:17.056Z,5.63
2018-07-01T19:49:16.993Z,5.63
2018-07-01T19:51:09.834Z,5.63
2018-07-01T19:52:09.805Z,5.63
2018-07-01T19:54:02.543Z,0.00
2018-07-01T19:55:02.457Z,0.00
2018-07-01T19:56:55.353Z,0.00
2018-07-01T19:57:55.280Z,0.00
2018-07-01T19:59:48.072Z,0.00
2018-07-01T20:00:48.001Z,0.00
2018-07-01T20:02:40.824Z,0.00
2018-07-01T20:03:40.708Z,0.00
2018-07-01T20:05:33.585Z,0.00
2018-07-01T20:06:34.069Z,0.00
2018-07-01T20:08:26.311Z,0.00
2018-07-01T20:09:26.209Z,0.00
2018-07-01T20:11:19.088Z,0.00
2018-07-01T20:12:18.961Z,0.00
2018-07-01T20:14:11.908Z,0.00
2018-07-01T20:15:11.807Z,0.00
2018-07-01T20:17:04.756Z,0.00
2018-07-01T20:18:04.682Z,0.00
2018-07-01T20:19:58.012Z,0.00
2018-07-01T20:20:57.530Z,0.00
2018-07-01T20:22:50.371Z,0.00
2018-07-01T20:23:50.280Z,0.00
2018-07-01T20:25:43.109Z,0.00
2018-07-01T20:26:43.008Z,0.00
2018-07-01T20:28:35.873Z,0.00
2018-07-01T20:29:35.767Z,0.00
2018-07-01T20:31:28.627Z,0.00
2018-07-01T20:32:28.510Z,0.00
2018-07-01T20:34:21.364Z,0.00
2018-07-01T20:35:21.254Z,0.00
2018-07-01T20:37:14.118Z,0.00
2018-07-01T20:38:14.019Z,0.00
2018-07-01T20:40:06.881Z,0.00
2018-07-01T20:41:06.758Z,0.00
2018-07-01T20:42:59.622Z,0.00
2018-07-01T20:44:00.372Z,0.00
2018-07-01T20:45:52.382Z,0.00
2018-07-01T20:46:52.254Z,0.00
2018-07-01T20:48:45.186Z,0.00
2018-07-01T20:49:45.077Z,0.00
2018-07-01T20:51:37.878Z,0.00
2018-07-01T20:52:37.761Z,0.00
2018-07-01T20:54:30.596Z,0.00
2018-07-01T20:55:30.501Z,0.00
2018-07-01T20:57:23.388Z,0.00
2018-07-01T20:58:23.279Z,0.00
2018-07-01T21:00:16.133Z,0.00
2018-07-01T21:01:16.089Z,0.00
2018-07-01T21:03:08.883Z,0.00
2018-07-01T21:04:08.747Z,0.00
2018-07-01T21:06:02.128Z,0.00
2018-07-01T21:07:01.539Z,0.00
2018-07-01T21:08:54.370Z,0.00
2018-07-01T21:09:54.263Z,0.00
2018-07-01T21:11:47.175Z,0.00
2018-07-01T21:12:47.089Z,0.00
2018-07-01T21:14:39.865Z,0.00
2018-07-01T21:15:39.766Z,0.00
2018-07-01T21:17:32.616Z,0.00
2018-07-01T21:18:32.520Z,0.00
2018-07-01T21:20:25.485Z,0.00
2018-07-01T21:21:25.366Z,0.00
2018-07-01T21:23:18.196Z,0.00
2018-07-01T21:24:18.107Z,0.00
2018-07-01T21:26:10.970Z,0.00
2018-07-01T21:27:10.854Z,0.00
2018-07-01T21:29:03.719Z,0.00
2018-07-01T21:30:03.599Z,0.00
2018-07-01T21:31:56.441Z,0.00
2018-07-01T21:32:56.341Z,0.00
2018-07-01T21:34:49.198Z,0.00
2018-07-01T21:35:49.094Z,0.00
2018-07-01T21:37:41.986Z,0.00
2018-07-01T21:38:41.848Z,0.00
2018-07-01T21:40:34.632Z,0.00
2018-07-01T21:41:34.496Z,0.00
2018-07-01T21:43:27.340Z,0.00
2018-07-01T21:44:27.319Z,0.00
2018-07-01T21:46:20.198Z,0.00
2018-07-01T21:47:20.142Z,0.00
2018-07-01T21:49:12.964Z,0.00
2018-07-01T21:50:12.868Z,0.00
2018-07-01T21:52:05.722Z,0.00
2018-07-01T21:53:05.634Z,0.00
2018-07-01T21:54:58.972Z,0.00
2018-07-01T21:55:58.866Z,0.00
2018-07-01T21:57:51.705Z,0.00
2018-07-01T21:58:52.114Z,0.00
2018-07-01T22:00:44.990Z,0.00
2018-07-01T22:01:44.380Z,0.00
2018-07-01T22:03:37.770Z,0.00
2018-07-01T22:04:37.127Z,0.00
2018-07-01T22:06:29.975Z,0.00
2018-07-01T22:07:29.848Z,0.00
2018-07-01T22:09:22.605Z,0.00
2018-07-01T22:10:22.506Z,0.00
2018-07-01T22:12:15.386Z,0.00
2018-07-01T22:13:15.266Z,0.00
2018-07-01T22:15:08.009Z,0.00
2018-07-01T22:16:07.912Z,0.00
2018-07-01T22:18:01.172Z,0.00
2018-07-01T22:19:01.077Z,0.00
2018-07-01T22:20:53.815Z,0.00
2018-07-01T22:21:53.744Z,0.00
2018-07-01T22:23:46.577Z,0.00
2018-07-01T22:24:46.450Z,0.00
2018-07-01T22:26:39.206Z,0.00
2018-07-01T22:27:39.115Z,0.00
2018-07-01T22:29:31.952Z,0.00
2018-07-01T22:30:31.846Z,0.00
2018-07-01T22:32:24.741Z,0.00
2018-07-01T22:33:24.597Z,0.00
2018-07-01T22:35:17.476Z,0.00
2018-07-01T22:36:17.857Z,0.00
2018-07-01T22:38:10.243Z,0.00
2018-07-01T22:39:10.104Z,0.00
2018-07-01T22:41:02.981Z,0.00
2018-07-01T22:42:02.862Z,0.00
2018-07-01T22:43:55.727Z,0.00
2018-07-01T22:44:55.611Z,0.00
2018-07-01T22:46:48.467Z,0.00
2018-07-01T22:47:48.344Z,0.00
2018-07-01T22:49:41.105Z,0.00
2018-07-01T22:50:41.001Z,0.00
2018-07-01T22:52:33.845Z,0.00
2018-07-01T22:53:33.759Z,0.00
2018-07-01T22:55:26.622Z,0.00
2018-07-01T22:56:26.393Z,0.00
2018-07-01T22:58:19.273Z,0.00
2018-07-01T22:59:19.153Z,0.00
2018-07-01T23:01:11.999Z,0.00
2018-07-01T23:02:11.926Z,0.00
2018-07-01T23:04:04.663Z,0.00
2018-07-01T23:05:04.762Z,0.00
2018-07-01T23:06:57.476Z,0.00
2018-07-01T23:07:57.184Z,0.00
2018-07-01T23:09:50.039Z,0.00
2018-07-01T23:10:49.932Z,0.00
2018-07-01T23:12:42.917Z,0.00
2018-07-01T23:13:42.700Z,0.00
2018-07-01T23:15:35.620Z,0.00
2018-07-01T23:16:35.433Z,0.00
2018-07-01T23:18:28.172Z,0.00
2018-07-01T23:19:28.086Z,0.00
2018-07-01T23:21:20.991Z,0.00
2018-07-01T23:22:20.858Z,0.00
2018-07-01T23:24:13.706Z,0.00
2018-07-01T23:25:13.665Z,0.00
2018-07-01T23:27:06.440Z,0.00
2018-07-01T23:28:06.347Z,0.00
2018-07-01T23:29:59.071Z,0.00
2018-07-01T23:30:58.979Z,0.00
2018-07-01T23:32:51.753Z,0.00
2018-07-01T23:33:51.669Z,0.00
2018-07-01T23:35:44.498Z,0.00
2018-07-01T23:36:44.372Z,0.00
2018-07-01T23:38:37.762Z,0.00
2018-07-01T23:39:37.630Z,0.00
2018-07-01T23:41:30.411Z,0.00
2018-07-01T23:42:30.286Z,0.00
2018-07-01T23:44:23.041Z,0.00
2018-07-01T23:45:22.929Z,0.00
2018-07-01T23:47:15.805Z,0.00
2018-07-01T23:48:15.738Z,0.00
2018-07-01T23:50:08.524Z,0.00
2018-07-01T23:51:08.481Z,0.00
2018-07-01T23:53:01.302Z,0.00
2018-07-01T23:54:01.221Z,0.00
2018-07-01T23:55:54.030Z,0.00
2018-07-01T23:56:53.958Z,0.00
2018-07-01T23:58:46.800Z,0.00
2018-07-01T23:59:46.689Z,0.00
